Time;durP1;ratioP1;P1;durP2;ratioP2;P2;SDS_P1;SDS_P2;PMS_P1;PMS_P2;Temp;Humidity;BMP_temperature;BMP_pressure;BME280_temperature;BME280_humidity;BME280_pressure;Samples;Min_cycle;Max_cycle;Signal;HPM_P1;HPM_P2
2022/12/22 03:25:53;;;;;;;;;;;;;;;4.65;77.05;98511.63;4947797;28;2219;-85
2022/12/22 03:28:20;;;;;;;;;;;;;;;4.67;76.91;98512.19;4945026;28;2484;-85
2022/12/22 03:30:47;;;;;;;;;;;;;;;4.68;76.96;98515.69;4939863;28;2480;-86
2022/12/22 03:33:13;;;;;;;;;;;;;;;4.71;76.85;98508.03;4937213;28;2644;-86
2022/12/22 03:35:39;;;;;;;;;;;;;;;4.73;76.80;98507.78;4936968;28;2420;-86
2022/12/22 03:38:06;;;;;;;;;;;;;;;4.72;76.99;98509.66;4934204;28;2564;-86
2022/12/22 03:40:33;;;;;;;;;;;;;;;4.75;76.89;98500.38;4932356;28;2175;-86
2022/12/22 03:48:28;;;;;;;;;;;;;;;4.86;76.35;98504.09;4951644;28;1910;-86
2022/12/22 03:50:55;;;;;;;;;;;;;;;4.85;76.57;98503.28;4951846;28;4621;-86
2022/12/22 03:53:21;;;;;;;;;;;;;;;4.80;76.52;98505.03;4935230;29;2205;-86
2022/12/22 03:55:48;;;;;;;;;;;;;;;4.85;76.83;98495.28;5004068;23;3693;-83
2022/12/22 03:58:15;;;;;;;;;;;;;;;4.89;76.53;98499.13;4971987;28;1276;-82
2022/12/22 04:00:41;;;;;;;;;;;;;;;4.87;76.22;98493.19;4984797;28;1979;-84
2022/12/22 04:03:08;;;;;;;;;;;;;;;4.97;75.77;98505.94;4984413;28;3238;-83
2022/12/22 04:05:34;;;;;;;;;;;;;;;5.03;75.58;98502.38;4977563;28;2431;-84
2022/12/22 04:08:01;;;;;;;;;;;;;;;4.99;76.05;98501.19;4984431;28;2423;-83
2022/12/22 04:13:12;;;;;;;;;;;;;;;5.06;75.60;98498.38;4975077;28;2189;-83
2022/12/22 04:15:38;;;;;;;;;;;;;;;5.09;75.54;98489.91;4973444;28;2799;-82
2022/12/22 04:18:05;;;;;;;;;;;;;;;5.07;75.63;98494.69;4959980;28;2462;-83
2022/12/22 04:20:32;;;;;;;;;;;;;;;5.07;75.50;98495.50;4977096;28;2199;-83
2022/12/22 04:22:58;;;;;;;;;;;;;;;5.03;75.77;98488.19;4956940;28;2232;-82
2022/12/22 04:25:25;;;;;;;;;;;;;;;4.97;75.91;98490.75;4979375;28;2243;-81
2022/12/22 04:27:52;;;;;;;;;;;;;;;5.07;75.66;98478.69;4964766;28;2352;-82
2022/12/22 04:30:18;;;;;;;;;;;;;;;5.13;75.40;98477.75;4966270;28;2096;-82
2022/12/22 04:32:45;;;;;;;;;;;;;;;5.23;75.16;98475.28;4979198;28;2670;-83
2022/12/22 04:35:11;;;;;;;;;;;;;;;5.12;75.61;98476.94;4970076;28;2300;-83
2022/12/22 04:37:38;;;;;;;;;;;;;;;5.21;75.20;98478.19;4956426;28;2177;-83
2022/12/22 04:40:05;;;;;;;;;;;;;;;5.13;75.31;98470.53;4971242;28;2230;-82
2022/12/22 04:42:31;;;;;;;;;;;;;;;5.20;75.24;98471.22;4960534;28;2578;-84
2022/12/22 04:44:58;;;;;;;;;;;;;;;5.24;74.98;98460.91;4953341;28;2110;-83
2022/12/22 04:47:24;;;;;;;;;;;;;;;5.27;74.87;98463.09;4971692;28;2295;-83
2022/12/22 04:49:51;;;;;;;;;;;;;;;5.20;75.08;98462.41;4969850;28;2412;-83
2022/12/22 04:52:17;;;;;;;;;;;;;;;5.26;75.02;98466.78;4956315;28;2421;-82
2022/12/22 04:54:44;;;;;;;;;;;;;;;5.34;74.78;98470.97;4971385;28;2190;-83
2022/12/22 04:57:10;;;;;;;;;;;;;;;5.30;75.06;98464.50;4967989;28;2467;-83
2022/12/22 04:59:37;;;;;;;;;;;;;;;5.24;74.95;98460.91;4950657;28;2623;-84
2022/12/22 05:02:03;;;;;;;;;;;;;;;5.16;75.12;98455.94;4949987;28;2465;-84
2022/12/22 05:04:31;;;;;;;;;;;;;;;5.24;75.02;98453.69;4951107;28;2177;-82
2022/12/22 05:06:57;;;;;;;;;;;;;;;5.18;75.40;98457.31;4950932;28;2833;-82
2022/12/22 05:09:24;;;;;;;;;;;;;;;5.38;74.59;98459.59;4964055;28;2285;-83
2022/12/22 05:11:50;;;;;;;;;;;;;;;5.37;74.76;98460.63;4951479;28;2479;-82
2022/12/22 05:14:17;;;;;;;;;;;;;;;5.34;74.85;98454.94;4950096;28;2255;-83
2022/12/22 05:16:43;;;;;;;;;;;;;;;5.31;75.00;98458.09;4949494;28;2139;-81
2022/12/22 05:19:10;;;;;;;;;;;;;;;5.36;74.68;98450.19;4951502;28;2231;-81
2022/12/22 05:21:37;;;;;;;;;;;;;;;5.37;74.61;98446.47;4949030;28;2203;-82
2022/12/22 05:24:03;;;;;;;;;;;;;;;5.23;75.14;98457.44;4949940;28;2263;-83
2022/12/22 05:26:31;;;;;;;;;;;;;;;5.33;74.89;98448.81;4951316;28;2609;-82
2022/12/22 05:28:58;;;;;;;;;;;;;;;5.41;74.63;98447.59;4950735;28;2537;-83
2022/12/22 05:31:24;;;;;;;;;;;;;;;5.42;74.53;98444.72;4948353;28;2679;-83
2022/12/22 05:33:51;;;;;;;;;;;;;;;5.34;74.77;98444.28;4952826;28;2348;-83
2022/12/22 05:36:17;;;;;;;;;;;;;;;5.29;75.09;98447.63;4949606;28;2536;-83
2022/12/22 05:38:44;;;;;;;;;;;;;;;5.22;75.19;98437.09;4947127;28;2914;-83
2022/12/22 05:41:11;;;;;;;;;;;;;;;5.27;75.34;98439.09;4964057;28;2755;-84
2022/12/22 05:43:38;;;;;;;;;;;;;;;5.33;75.10;98443.47;4964777;28;2177;-83
2022/12/22 05:46:04;;;;;;;;;;;;;;;5.39;74.95;98436.38;4949778;28;2570;-83
2022/12/22 05:48:31;;;;;;;;;;;;;;;5.30;75.17;98437.81;4953729;28;2344;-83
2022/12/22 05:50:58;;;;;;;;;;;;;;;5.42;74.58;98433.22;4948172;28;2528;-82
2022/12/22 05:53:24;;;;;;;;;;;;;;;5.41;74.43;98427.09;4965291;28;2485;-83
2022/12/22 05:55:51;;;;;;;;;;;;;;;5.33;74.81;98427.44;4967970;28;2427;-83
2022/12/22 05:58:18;;;;;;;;;;;;;;;5.36;74.75;98432.31;4972136;28;2573;-82
2022/12/22 06:00:45;;;;;;;;;;;;;;;5.37;74.73;98423.25;4955474;28;2248;-83
2022/12/22 06:03:11;;;;;;;;;;;;;;;5.40;74.64;98425.44;4953101;28;2139;-85
2022/12/22 06:05:38;;;;;;;;;;;;;;;5.36;74.79;98416.28;4970872;28;2178;-84
2022/12/22 06:08:04;;;;;;;;;;;;;;;5.30;75.03;98413.78;4952774;28;2257;-82
2022/12/22 06:10:31;;;;;;;;;;;;;;;5.30;74.90;98411.91;4951321;28;3161;-82
2022/12/22 06:12:58;;;;;;;;;;;;;;;5.22;75.44;98420.28;4954569;28;2164;-82
2022/12/22 06:15:24;;;;;;;;;;;;;;;5.44;74.81;98415.94;4955975;28;2367;-81
2022/12/22 06:17:51;;;;;;;;;;;;;;;5.32;75.04;98411.66;4957075;28;2184;-83
2022/12/22 06:20:18;;;;;;;;;;;;;;;5.28;75.21;98419.34;4948629;28;4434;-82
2022/12/22 06:22:45;;;;;;;;;;;;;;;5.39;74.97;98410.47;4960145;28;3708;-83
2022/12/22 06:25:11;;;;;;;;;;;;;;;5.35;75.06;98416.53;4974412;28;3801;-83
2022/12/22 06:27:38;;;;;;;;;;;;;;;5.31;75.15;98415.38;4987266;28;2078;-82
2022/12/22 06:30:04;;;;;;;;;;;;;;;5.30;75.11;98406.56;4983615;28;2018;-82
2022/12/22 06:32:31;;;;;;;;;;;;;;;5.32;75.06;98409.78;4988999;28;2229;-83
2022/12/22 06:34:57;;;;;;;;;;;;;;;5.28;75.10;98413.19;4979678;28;1043;-83
2022/12/22 06:37:24;;;;;;;;;;;;;;;5.43;74.75;98403.59;4956891;28;3774;-84
2022/12/22 06:39:50;;;;;;;;;;;;;;;5.43;74.74;98410.81;4971415;28;2495;-84
2022/12/22 06:45:02;;;;;;;;;;;;;;;5.28;75.15;98403.31;4979125;28;2273;-84
2022/12/22 06:47:28;;;;;;;;;;;;;;;5.44;74.55;98407.09;4977630;28;2154;-83
2022/12/22 06:49:55;;;;;;;;;;;;;;;5.28;74.89;98399.84;4979794;28;2156;-82
2022/12/22 06:52:21;;;;;;;;;;;;;;;5.23;75.37;98398.72;4982516;28;1268;-84
2022/12/22 06:54:48;;;;;;;;;;;;;;;5.41;74.97;98400.38;4964385;28;1839;-84
2022/12/22 06:57:14;;;;;;;;;;;;;;;5.27;75.07;98407.06;4987505;28;1530;-83
2022/12/22 06:59:41;;;;;;;;;;;;;;;5.35;75.03;98412.00;4963698;28;1646;-83
2022/12/22 07:02:08;;;;;;;;;;;;;;;5.36;74.95;98412.81;4963334;28;3301;-84
2022/12/22 07:04:34;;;;;;;;;;;;;;;5.32;75.18;98417.81;4970610;28;2588;-85
2022/12/22 07:07:01;;;;;;;;;;;;;;;5.18;75.53;98417.28;4954005;28;2614;-83
2022/12/22 07:09:28;;;;;;;;;;;;;;;5.34;75.11;98417.59;4955233;28;2277;-84
2022/12/22 07:11:54;;;;;;;;;;;;;;;5.19;75.74;98420.75;4958753;28;3497;-83
2022/12/22 07:14:21;;;;;;;;;;;;;;;4.42;81.73;98426.31;4973871;28;2478;-83
2022/12/22 07:16:48;;;;;;;;;;;;;;;5.07;78.22;98420.78;4956575;28;2253;-83
2022/12/22 07:19:14;;;;;;;;;;;;;;;4.92;78.13;98420.47;4970349;28;2620;-84
2022/12/22 07:21:41;;;;;;;;;;;;;;;4.98;77.57;98423.00;4961166;28;2314;-82
2022/12/22 07:24:08;;;;;;;;;;;;;;;5.00;77.45;98426.25;4984256;28;2183;-84
2022/12/22 07:26:34;;;;;;;;;;;;;;;5.20;77.18;98420.50;4968585;28;1821;-84
2022/12/22 07:29:01;;;;;;;;;;;;;;;5.22;76.37;98418.41;4988087;28;2133;-84
2022/12/22 07:31:27;;;;;;;;;;;;;;;5.20;76.31;98422.38;4959577;28;2352;-84
2022/12/22 07:33:54;;;;;;;;;;;;;;;5.13;76.71;98425.19;4982108;28;2353;-84
2022/12/22 07:36:20;;;;;;;;;;;;;;;5.24;76.08;98426.22;4966466;28;2157;-84
2022/12/22 07:38:47;;;;;;;;;;;;;;;5.30;75.71;98425.25;4970025;28;2154;-84
2022/12/22 07:43:58;;;;;;;;;;;;;;;5.21;76.15;98424.81;4962729;28;2358;-83
2022/12/22 07:46:24;;;;;;;;;;;;;;;5.20;76.11;98425.03;4975843;28;2240;-84
2022/12/22 07:51:35;;;;;;;;;;;;;;;5.20;76.02;98425.84;4975714;28;2475;-84
2022/12/22 07:54:02;;;;;;;;;;;;;;;5.18;76.08;98429.81;4961894;28;2185;-84
2022/12/22 07:56:28;;;;;;;;;;;;;;;5.08;76.65;98426.94;4970875;28;2765;-84
2022/12/22 07:58:55;;;;;;;;;;;;;;;5.24;76.16;98426.22;4958062;28;2392;-84
2022/12/22 08:01:21;;;;;;;;;;;;;;;5.07;76.34;98423.47;4983027;28;2019;-85
2022/12/22 08:03:48;;;;;;;;;;;;;;;5.07;76.55;98418.13;4969014;28;2480;-85
2022/12/22 08:06:15;;;;;;;;;;;;;;;5.12;76.25;98422.75;4963056;28;2457;-85
2022/12/22 08:08:42;;;;;;;;;;;;;;;5.09;76.37;98418.72;4981353;28;2510;-84
2022/12/22 08:11:08;;;;;;;;;;;;;;;5.11;76.64;98426.47;4965616;28;2106;-84
2022/12/22 08:13:35;;;;;;;;;;;;;;;5.16;76.01;98410.56;4979140;28;2610;-85
2022/12/22 08:16:02;;;;;;;;;;;;;;;5.29;75.61;98414.81;4961176;28;2749;-85
2022/12/22 08:18:29;;;;;;;;;;;;;;;5.06;76.35;98413.84;4965949;28;2491;-84
2022/12/22 08:20:55;;;;;;;;;;;;;;;5.14;76.17;98412.66;4966517;28;2529;-86
2022/12/22 08:23:22;;;;;;;;;;;;;;;5.29;75.64;98423.63;4983508;28;2026;-84
2022/12/22 08:25:49;;;;;;;;;;;;;;;5.15;75.74;98416.97;4968951;28;1732;-86
2022/12/22 08:28:16;;;;;;;;;;;;;;;5.09;76.08;98413.38;4965344;28;1967;-86
2022/12/22 08:30:43;;;;;;;;;;;;;;;5.22;75.83;98418.41;4966862;28;2134;-85
2022/12/22 08:33:09;;;;;;;;;;;;;;;5.13;76.02;98416.38;4966661;28;1984;-85
2022/12/22 08:35:36;;;;;;;;;;;;;;;5.08;76.18;98409.06;4964937;28;2063;-86
2022/12/22 08:38:03;;;;;;;;;;;;;;;5.04;76.42;98407.91;4974295;28;2021;-85
2022/12/22 08:40:29;;;;;;;;;;;;;;;5.12;76.26;98404.91;4964824;28;2674;-85
2022/12/22 08:42:57;;;;;;;;;;;;;;;5.09;76.40;98409.88;4967035;28;2262;-86
2022/12/22 08:45:24;;;;;;;;;;;;;;;5.10;76.25;98406.16;4964233;28;2057;-85
2022/12/22 08:47:50;;;;;;;;;;;;;;;5.14;76.08;98402.78;4965911;28;2480;-85
2022/12/22 08:50:17;;;;;;;;;;;;;;;5.10;76.23;98412.31;4963437;28;3636;-84
2022/12/22 08:52:44;;;;;;;;;;;;;;;5.17;75.98;98407.63;4960378;28;3618;-86
2022/12/22 08:55:10;;;;;;;;;;;;;;;5.08;76.32;98413.59;4963706;28;3571;-86
2022/12/22 08:57:37;;;;;;;;;;;;;;;5.00;76.58;98407.59;4977139;28;2429;-86
2022/12/22 09:00:03;;;;;;;;;;;;;;;5.05;76.34;98400.72;4967225;28;2544;-85
2022/12/22 09:02:30;;;;;;;;;;;;;;;5.03;76.52;98402.81;4979269;28;2436;-85
2022/12/22 09:04:57;;;;;;;;;;;;;;;5.15;76.04;98409.75;4974754;28;2235;-86
2022/12/22 09:07:23;;;;;;;;;;;;;;;5.10;76.17;98412.31;4981281;28;3565;-86
2022/12/22 09:09:50;;;;;;;;;;;;;;;5.08;76.09;98411.72;4983439;28;2109;-86
2022/12/22 09:12:17;;;;;;;;;;;;;;;5.08;76.35;98429.59;4969257;28;2870;-86
2022/12/22 09:14:43;;;;;;;;;;;;;;;5.04;76.45;98425.78;4967472;28;2321;-86
2022/12/22 09:17:10;;;;;;;;;;;;;;;5.12;76.06;98420.09;4985573;28;2078;-86
2022/12/22 09:19:37;;;;;;;;;;;;;;;5.10;76.13;98427.53;4981112;28;1929;-86
2022/12/22 09:22:04;;;;;;;;;;;;;;;5.17;76.10;98415.66;4985002;28;2518;-86
2022/12/22 09:24:30;;;;;;;;;;;;;;;5.20;75.87;98417.84;4964829;28;2123;-86
2022/12/22 09:26:57;;;;;;;;;;;;;;;5.05;76.35;98414.88;4963793;28;2183;-86
2022/12/22 09:29:24;;;;;;;;;;;;;;;5.04;76.37;98415.94;4981746;28;2106;-86
2022/12/22 09:31:50;;;;;;;;;;;;;;;5.16;75.96;98408.69;4984310;28;2133;-86
2022/12/22 09:34:17;;;;;;;;;;;;;;;5.12;75.91;98417.44;4981812;28;2211;-86
2022/12/22 09:36:44;;;;;;;;;;;;;;;5.22;75.56;98413.09;4968973;28;1970;-86
2022/12/22 09:39:11;;;;;;;;;;;;;;;5.38;74.95;98411.53;4964800;28;2242;-87
2022/12/22 09:41:37;;;;;;;;;;;;;;;5.20;75.61;98407.16;4962625;28;2554;-86
2022/12/22 09:44:04;;;;;;;;;;;;;;;5.20;75.71;98412.50;4976627;28;2280;-86
2022/12/22 09:46:31;;;;;;;;;;;;;;;5.22;75.79;98406.94;4964260;28;2372;-84
2022/12/22 09:48:57;;;;;;;;;;;;;;;5.22;75.61;98398.94;4965279;28;2298;-87
2022/12/22 09:51:24;;;;;;;;;;;;;;;5.35;75.41;98389.81;4964861;28;2338;-87
2022/12/22 09:53:50;;;;;;;;;;;;;;;5.18;75.67;98392.47;4964649;28;2211;-87
2022/12/22 09:56:17;;;;;;;;;;;;;;;5.36;75.17;98380.78;4974663;28;3588;-85
2022/12/22 09:58:43;;;;;;;;;;;;;;;5.33;75.42;98386.59;4972000;28;3496;-85
2022/12/22 10:01:10;;;;;;;;;;;;;;;5.28;75.50;98381.97;4960066;28;2430;-87
2022/12/22 10:03:37;;;;;;;;;;;;;;;5.39;75.00;98380.31;4955050;28;3764;-86
2022/12/22 10:06:03;;;;;;;;;;;;;;;5.44;74.71;98380.38;4961441;28;2065;-87
2022/12/22 10:08:30;;;;;;;;;;;;;;;5.34;75.26;98377.53;4965594;28;2175;-87
2022/12/22 10:10:57;;;;;;;;;;;;;;;5.49;74.79;98383.16;4963841;28;2071;-85
2022/12/22 10:13:24;;;;;;;;;;;;;;;5.54;74.56;98382.44;4960250;28;2129;-87
2022/12/22 10:15:50;;;;;;;;;;;;;;;5.43;74.88;98376.91;4965687;28;3678;-86
2022/12/22 10:18:20;;;;;;;;;;;;;;;5.48;74.93;98378.88;4960587;28;2395;-87
2022/12/22 10:20:47;;;;;;;;;;;;;;;5.53;74.69;98370.13;4964339;28;2074;-86
2022/12/22 10:23:13;;;;;;;;;;;;;;;5.41;74.66;98376.38;4959662;28;2406;-86
2022/12/22 10:25:40;;;;;;;;;;;;;;;5.43;74.89;98366.22;4972614;28;2219;-87
2022/12/22 10:28:06;;;;;;;;;;;;;;;5.53;74.59;98368.28;4957180;28;2100;-87
2022/12/22 10:30:33;;;;;;;;;;;;;;;5.49;74.83;98366.34;4972741;28;2124;-87
2022/12/22 10:32:59;;;;;;;;;;;;;;;5.56;74.55;98359.81;4961290;28;2479;-86
2022/12/22 10:35:26;;;;;;;;;;;;;;;5.59;74.48;98364.66;4963706;28;1969;-87
2022/12/22 10:37:53;;;;;;;;;;;;;;;5.46;74.77;98364.94;4960491;28;2288;-86
2022/12/22 10:40:19;;;;;;;;;;;;;;;5.46;74.88;98360.41;4959129;28;2012;-87
2022/12/22 10:42:46;;;;;;;;;;;;;;;5.52;74.75;98358.66;4958692;28;2087;-85
2022/12/22 10:45:13;;;;;;;;;;;;;;;5.64;74.37;98354.03;4955233;28;2031;-86
2022/12/22 10:47:39;;;;;;;;;;;;;;;5.54;74.53;98364.56;4956855;28;2098;-85
2022/12/22 10:50:06;;;;;;;;;;;;;;;5.61;74.64;98359.88;4974774;28;2371;-86
2022/12/22 10:52:32;;;;;;;;;;;;;;;5.59;74.44;98362.00;4958599;28;2123;-84
2022/12/22 10:54:59;;;;;;;;;;;;;;;5.57;74.37;98356.06;4961276;28;2418;-85
2022/12/22 10:57:26;;;;;;;;;;;;;;;5.54;74.66;98353.88;4976132;28;2537;-86
2022/12/22 10:59:52;;;;;;;;;;;;;;;5.65;74.34;98353.00;4984046;28;2125;-85
2022/12/22 11:02:19;;;;;;;;;;;;;;;5.61;74.49;98353.72;4979563;28;2566;-85
2022/12/22 11:04:46;;;;;;;;;;;;;;;5.62;74.45;98342.00;4974440;28;4577;-85
2022/12/22 11:07:12;;;;;;;;;;;;;;;5.54;74.62;98342.41;4975658;28;3709;-85
2022/12/22 11:09:39;;;;;;;;;;;;;;;5.52;74.66;98333.81;4968344;28;2194;-85
2022/12/22 11:12:05;;;;;;;;;;;;;;;5.60;74.44;98334.22;4978680;28;3423;-85
2022/12/22 11:14:32;;;;;;;;;;;;;;;5.56;74.64;98327.75;4970586;28;2326;-85
2022/12/22 11:16:58;;;;;;;;;;;;;;;5.56;74.57;98333.09;4962687;28;2474;-84
2022/12/22 11:19:25;;;;;;;;;;;;;;;5.61;74.47;98321.69;4971417;28;2015;-85
2022/12/22 11:21:52;;;;;;;;;;;;;;;5.48;74.85;98328.16;4972602;28;1861;-86
2022/12/22 11:24:20;;;;;;;;;;;;;;;5.59;74.58;98324.59;4975366;28;2043;-86
2022/12/22 11:26:46;;;;;;;;;;;;;;;5.60;74.63;98330.75;4980154;28;2842;-86
2022/12/22 11:29:13;;;;;;;;;;;;;;;5.55;74.61;98325.31;4986837;28;2175;-86
2022/12/22 11:31:40;;;;;;;;;;;;;;;5.56;74.45;98321.59;4980596;28;5184;-86
2022/12/22 11:34:06;;;;;;;;;;;;;;;5.64;74.62;98313.97;4983924;28;2262;-84
2022/12/22 11:36:33;;;;;;;;;;;;;;;5.61;74.65;98303.00;4982531;28;2585;-83
2022/12/22 11:38:59;;;;;;;;;;;;;;;5.66;74.41;98305.75;4962512;28;2577;-85
2022/12/22 11:41:26;;;;;;;;;;;;;;;5.62;74.64;98300.09;4974029;28;4123;-84
2022/12/22 11:43:53;;;;;;;;;;;;;;;5.55;74.61;98301.28;4971990;28;3990;-84
2022/12/22 11:46:19;;;;;;;;;;;;;;;5.49;74.78;98302.25;4954573;28;5097;-85
2022/12/22 11:48:46;;;;;;;;;;;;;;;5.57;74.57;98291.97;4954943;28;2475;-83
2022/12/22 11:51:12;;;;;;;;;;;;;;;5.51;75.05;98292.97;4962669;28;2192;-85
2022/12/22 11:53:39;;;;;;;;;;;;;;;5.56;74.66;98286.88;4960404;28;2374;-84
2022/12/22 11:56:05;;;;;;;;;;;;;;;5.52;74.88;98291.88;4965284;28;2043;-86
2022/12/22 11:58:32;;;;;;;;;;;;;;;5.63;74.45;98292.88;4981766;28;2565;-84
2022/12/22 12:00:58;;;;;;;;;;;;;;;5.58;74.55;98287.44;4965765;28;2055;-84
2022/12/22 12:03:26;;;;;;;;;;;;;;;5.56;74.79;98281.53;4986302;28;3698;-84
2022/12/22 12:05:52;;;;;;;;;;;;;;;5.42;75.25;98287.19;4983322;28;2139;-83
2022/12/22 12:08:19;;;;;;;;;;;;;;;5.55;75.13;98291.41;4982907;28;2174;-83
2022/12/22 12:10:46;;;;;;;;;;;;;;;5.59;74.63;98276.53;4978916;28;2205;-84
2022/12/22 12:13:13;;;;;;;;;;;;;;;5.49;75.13;98276.34;4986818;28;2148;-82
2022/12/22 12:15:39;;;;;;;;;;;;;;;5.62;74.70;98278.72;4973280;28;2231;-84
2022/12/22 12:18:06;;;;;;;;;;;;;;;5.58;74.80;98272.22;4971280;28;5132;-84
2022/12/22 12:20:32;;;;;;;;;;;;;;;5.57;74.57;98269.81;4988124;28;2173;-83
2022/12/22 12:22:59;;;;;;;;;;;;;;;5.53;75.00;98269.50;4979661;28;2364;-84
2022/12/22 12:25:26;;;;;;;;;;;;;;;5.63;74.73;98269.66;4970994;28;2457;-83
2022/12/22 12:27:52;;;;;;;;;;;;;;;5.59;74.65;98265.03;4967898;28;2444;-84
2022/12/22 12:30:19;;;;;;;;;;;;;;;5.50;74.89;98259.31;4963205;28;2620;-83
2022/12/22 12:32:45;;;;;;;;;;;;;;;5.59;74.89;98251.66;4983360;28;2388;-84
2022/12/22 12:35:12;;;;;;;;;;;;;;;5.54;74.95;98260.44;4982901;28;2577;-84
2022/12/22 12:37:38;;;;;;;;;;;;;;;5.54;74.70;98252.41;4987171;28;2059;-84
2022/12/22 12:40:05;;;;;;;;;;;;;;;5.60;74.73;98253.31;4961936;28;4239;-84
2022/12/22 12:42:32;;;;;;;;;;;;;;;5.55;74.75;98259.38;4966576;28;2449;-83
2022/12/22 12:44:59;;;;;;;;;;;;;;;5.52;75.06;98256.38;4969177;28;2154;-85
2022/12/22 12:47:26;;;;;;;;;;;;;;;5.51;75.06;98254.78;4972615;28;2179;-84
2022/12/22 12:49:52;;;;;;;;;;;;;;;5.52;74.82;98245.69;4982197;28;2067;-84
2022/12/22 12:52:19;;;;;;;;;;;;;;;5.54;74.82;98246.28;4967501;28;1951;-84
2022/12/22 12:54:46;;;;;;;;;;;;;;;5.55;74.78;98247.88;4970074;28;2440;-84
2022/12/22 12:57:13;;;;;;;;;;;;;;;5.50;74.72;98250.47;4963517;28;2241;-85
2022/12/22 12:59:39;;;;;;;;;;;;;;;5.61;74.67;98241.56;4976467;28;2264;-86
2022/12/22 13:02:06;;;;;;;;;;;;;;;5.56;74.94;98246.81;4962784;28;4402;-85
2022/12/22 13:04:32;;;;;;;;;;;;;;;5.45;75.07;98251.19;4985091;28;2173;-84
2022/12/22 13:06:59;;;;;;;;;;;;;;;5.50;75.24;98253.13;4962835;28;2138;-85
2022/12/22 13:09:26;;;;;;;;;;;;;;;5.49;74.92;98247.00;4973145;28;4000;-84
2022/12/22 13:11:55;;;;;;;;;;;;;;;5.37;75.33;98255.06;4952553;28;2618;-84
2022/12/22 13:14:21;;;;;;;;;;;;;;;5.39;75.49;98250.31;4953052;28;2613;-85
2022/12/22 13:16:48;;;;;;;;;;;;;;;5.55;74.96;98254.03;4963150;28;2223;-84
2022/12/22 13:19:14;;;;;;;;;;;;;;;5.44;74.85;98255.75;4957562;28;2260;-86
2022/12/22 13:21:41;;;;;;;;;;;;;;;5.45;75.23;98249.34;4956333;28;2336;-85
2022/12/22 13:24:08;;;;;;;;;;;;;;;5.42;75.23;98249.81;4957606;28;2319;-83
2022/12/22 13:26:34;;;;;;;;;;;;;;;5.38;75.42;98255.88;4952656;28;2273;-84
2022/12/22 13:29:01;;;;;;;;;;;;;;;5.49;75.09;98252.31;4956289;28;2567;-85
2022/12/22 13:31:27;;;;;;;;;;;;;;;5.41;75.35;98252.72;4947550;28;2513;-86
2022/12/22 13:33:54;;;;;;;;;;;;;;;5.44;74.78;98250.41;4966645;28;2213;-85
2022/12/22 13:36:21;;;;;;;;;;;;;;;5.50;74.89;98245.97;4955883;28;2125;-84
2022/12/22 13:38:48;;;;;;;;;;;;;;;5.36;75.41;98250.78;4951542;28;2495;-85
2022/12/22 13:41:14;;;;;;;;;;;;;;;5.31;75.68;98253.38;4950235;28;2312;-85
2022/12/22 13:43:43;;;;;;;;;;;;;;;5.45;75.35;98252.00;4950855;28;2887;-86
2022/12/22 13:46:09;;;;;;;;;;;;;;;5.32;75.50;98252.31;4970127;28;2226;-85
2022/12/22 13:48:36;;;;;;;;;;;;;;;5.32;75.82;98254.97;4953642;28;2341;-85
2022/12/22 13:51:02;;;;;;;;;;;;;;;5.40;75.50;98253.78;4973676;28;2373;-84
2022/12/22 13:53:29;;;;;;;;;;;;;;;5.32;75.89;98251.50;4958047;28;2362;-85
2022/12/22 13:55:55;;;;;;;;;;;;;;;5.21;76.08;98247.88;4962303;28;2210;-85
2022/12/22 13:58:22;;;;;;;;;;;;;;;5.36;75.67;98241.97;4963237;28;2363;-85
2022/12/22 14:00:49;;;;;;;;;;;;;;;5.26;75.67;98249.81;4962646;28;2190;-85
2022/12/22 14:03:15;;;;;;;;;;;;;;;5.28;75.78;98255.72;4980354;28;2191;-85
2022/12/22 14:05:44;;;;;;;;;;;;;;;5.27;75.91;98244.25;4979572;28;2205;-85
2022/12/22 14:08:12;;;;;;;;;;;;;;;5.27;75.85;98252.25;4957718;28;2192;-85
2022/12/22 14:10:38;;;;;;;;;;;;;;;5.24;76.06;98250.88;4976574;28;2261;-85
2022/12/22 14:13:06;;;;;;;;;;;;;;;5.16;76.08;98256.59;4975191;28;2546;-83
2022/12/22 14:15:32;;;;;;;;;;;;;;;5.18;76.20;98251.03;4979998;28;2357;-85
2022/12/22 14:17:59;;;;;;;;;;;;;;;5.15;76.37;98254.19;4963497;28;2226;-85
2022/12/22 14:20:26;;;;;;;;;;;;;;;5.17;76.09;98260.06;4964032;28;2090;-84
2022/12/22 14:22:53;;;;;;;;;;;;;;;5.14;76.33;98266.69;4975457;28;2246;-85
2022/12/22 14:25:20;;;;;;;;;;;;;;;5.13;76.46;98265.06;4977975;28;2569;-86
2022/12/22 14:27:46;;;;;;;;;;;;;;;5.19;76.10;98265.97;4982195;28;1897;-86
2022/12/22 14:30:23;;;;;;;;;;;;;;;;;;;;;
2022/12/22 14:35:42;;;;;;;;;;;;;;;5.18;76.14;98259.03;4976087;28;2327;-86
2022/12/22 14:38:09;;;;;;;;;;;;;;;5.13;76.31;98264.28;4977661;28;2410;-85
2022/12/22 14:40:35;;;;;;;;;;;;;;;5.16;76.26;98259.25;4981343;28;2278;-86
2022/12/22 14:43:14;;;;;;;;;;;;;;;;;;;;;
2022/12/22 14:45:46;;;;;;;;;;;;;;;5.11;76.37;98258.34;4974799;28;2768;-85
2022/12/22 14:48:13;;;;;;;;;;;;;;;5.09;76.49;98266.63;4966688;28;2186;-86
2022/12/22 14:50:39;;;;;;;;;;;;;;;5.08;76.50;98266.84;4976575;28;2011;-85
2022/12/22 14:53:06;;;;;;;;;;;;;;;5.09;76.30;98268.44;4962359;28;2039;-85
2022/12/22 14:55:33;;;;;;;;;;;;;;;5.00;76.81;98273.38;4981829;28;2004;-85
2022/12/22 14:57:59;;;;;;;;;;;;;;;5.02;76.63;98271.28;4970530;28;2079;-87
2022/12/22 15:00:26;;;;;;;;;;;;;;;5.02;76.65;98271.28;4947784;28;2169;-87
2022/12/22 15:02:53;;;;;;;;;;;;;;;5.04;76.48;98279.84;4965421;28;1950;-86
2022/12/22 15:05:19;;;;;;;;;;;;;;;5.01;76.61;98275.00;4979678;28;2172;-86
2022/12/22 15:07:46;;;;;;;;;;;;;;;4.98;76.77;98284.28;4981263;28;2004;-86
2022/12/22 15:10:12;;;;;;;;;;;;;;;4.97;76.75;98280.00;4981835;28;2185;-87
2022/12/22 15:12:39;;;;;;;;;;;;;;;4.97;76.90;98276.50;4978540;28;2273;-86
2022/12/22 15:15:06;;;;;;;;;;;;;;;5.00;76.75;98284.06;4959297;28;2296;-87
2022/12/22 15:17:33;;;;;;;;;;;;;;;4.93;77.09;98278.84;4964296;28;2382;-86
2022/12/22 15:19:59;;;;;;;;;;;;;;;4.95;76.85;98290.09;4979023;28;2053;-87
2022/12/22 15:22:26;;;;;;;;;;;;;;;4.93;76.90;98283.38;4964436;28;2175;-87
2022/12/22 15:24:53;;;;;;;;;;;;;;;4.90;77.02;98281.19;4963372;28;1977;-87
2022/12/22 15:27:20;;;;;;;;;;;;;;;4.97;76.93;98279.16;4979013;28;2253;-87
2022/12/22 15:29:47;;;;;;;;;;;;;;;4.96;76.96;98277.56;4979646;28;2496;-87
2022/12/22 15:32:13;;;;;;;;;;;;;;;4.93;76.84;98286.03;4980453;28;2536;-87
2022/12/22 15:34:40;;;;;;;;;;;;;;;4.88;77.24;98288.59;4985362;28;2153;-87
2022/12/22 15:37:06;;;;;;;;;;;;;;;4.91;77.07;98288.13;4980806;28;2482;-87
2022/12/22 15:39:33;;;;;;;;;;;;;;;4.89;77.28;98284.91;4968009;28;2617;-87
2022/12/22 15:42:00;;;;;;;;;;;;;;;4.91;76.96;98291.63;4981047;28;2425;-86
2022/12/22 15:44:26;;;;;;;;;;;;;;;4.90;77.01;98283.84;4978383;28;2230;-87
2022/12/22 15:46:53;;;;;;;;;;;;;;;4.90;76.98;98283.84;4977762;28;2638;-87
2022/12/22 15:49:19;;;;;;;;;;;;;;;4.90;77.07;98294.53;4965286;28;2098;-86
2022/12/22 15:51:46;;;;;;;;;;;;;;;4.92;76.80;98300.44;4980589;28;2216;-87
2022/12/22 15:54:13;;;;;;;;;;;;;;;4.86;77.26;98298.72;4969927;28;2077;-87
2022/12/22 15:56:40;;;;;;;;;;;;;;;4.88;77.05;98301.94;4977614;28;2141;-87
2022/12/22 15:59:07;;;;;;;;;;;;;;;4.84;77.28;98304.28;4979046;28;2484;-88
2022/12/22 16:01:34;;;;;;;;;;;;;;;4.84;77.23;98308.81;4966107;28;2573;-88
2022/12/22 16:04:01;;;;;;;;;;;;;;;4.85;77.25;98305.88;4965296;28;2364;-87
2022/12/22 16:06:27;;;;;;;;;;;;;;;4.88;77.00;98310.78;4964913;28;2290;-88
2022/12/22 16:08:54;;;;;;;;;;;;;;;4.88;77.11;98317.94;4976708;28;2533;-87
2022/12/22 16:11:20;;;;;;;;;;;;;;;4.89;77.20;98316.91;4965966;28;2289;-88
2022/12/22 16:13:47;;;;;;;;;;;;;;;4.87;77.05;98306.47;4954015;28;2670;-88
2022/12/22 16:16:14;;;;;;;;;;;;;;;4.84;77.42;98311.47;4969376;28;2527;-88
2022/12/22 16:18:41;;;;;;;;;;;;;;;4.84;77.16;98314.94;4973138;28;2512;-88
2022/12/22 16:21:07;;;;;;;;;;;;;;;4.83;77.17;98318.69;4975655;28;2503;-88
2022/12/22 16:23:34;;;;;;;;;;;;;;;4.84;77.20;98322.94;4970804;28;2606;-88
2022/12/22 16:26:01;;;;;;;;;;;;;;;4.88;77.00;98323.28;4957760;28;2270;-87
2022/12/22 16:28:28;;;;;;;;;;;;;;;4.88;77.07;98316.13;4968928;28;2364;-87
2022/12/22 16:30:54;;;;;;;;;;;;;;;4.83;77.55;98313.34;4970683;28;2556;-86
2022/12/22 16:33:21;;;;;;;;;;;;;;;4.90;76.92;98311.34;4972788;28;2155;-89
2022/12/22 16:35:47;;;;;;;;;;;;;;;4.91;76.87;98312.97;4969651;28;2651;-88
2022/12/22 16:38:14;;;;;;;;;;;;;;;4.87;76.97;98324.34;4954337;28;2196;-88
2022/12/22 16:40:41;;;;;;;;;;;;;;;4.94;76.66;98325.84;4953438;28;2273;-88
2022/12/22 16:43:07;;;;;;;;;;;;;;;4.88;77.14;98329.44;4955620;28;2497;-87
2022/12/22 16:45:34;;;;;;;;;;;;;;;4.88;77.14;98336.63;4940073;28;2272;-88
2022/12/22 16:48:02;;;;;;;;;;;;;;;4.87;77.09;98333.16;4958455;28;2535;-88
2022/12/22 16:50:31;;;;;;;;;;;;;;;4.88;76.99;98334.78;4957404;28;2603;-88